createdAt,value
2022-11-20T00:00:04.747Z,46.22
2022-11-20T00:00:42.039Z,46.55
2022-11-20T00:01:15.854Z,46.42
2022-11-20T00:01:50.793Z,46.55
2022-11-20T00:02:23.160Z,46.65
2022-11-20T00:02:55.444Z,46.56
2022-11-20T00:03:30.466Z,46.36
2022-11-20T00:04:02.816Z,46.69
2022-11-20T00:04:35.096Z,46.60
2022-11-20T00:05:11.700Z,46.53
2022-11-20T00:05:44.080Z,46.25
2022-11-20T00:06:17.906Z,46.61
2022-11-20T00:06:52.980Z,46.60
2022-11-20T00:07:25.363Z,46.26
2022-11-20T00:07:57.718Z,46.55
2022-11-20T00:08:30.047Z,46.47
2022-11-20T00:09:06.382Z,46.55
2022-11-20T00:09:38.647Z,46.24
2022-11-20T00:10:10.988Z,46.31
2022-11-20T00:10:45.859Z,46.70
2022-11-20T00:11:22.943Z,46.38
2022-11-20T00:11:55.209Z,46.17
2022-11-20T00:12:27.501Z,46.60
2022-11-20T00:13:02.522Z,46.32
2022-11-20T00:13:35.045Z,46.52
2022-11-20T00:14:07.299Z,46.41
2022-11-20T00:14:42.376Z,46.70
2022-11-20T00:15:14.773Z,46.70
2022-11-20T00:15:47.024Z,46.35
2022-11-20T00:16:23.281Z,46.60
2022-11-20T00:16:55.541Z,46.53
2022-11-20T00:17:27.860Z,46.64
2022-11-20T00:18:02.756Z,46.43
2022-11-20T00:18:35.594Z,46.55
2022-11-20T00:19:10.495Z,46.67
2022-11-20T00:19:42.751Z,46.43
2022-11-20T00:20:15.799Z,46.50
2022-11-20T00:20:48.189Z,46.11
2022-11-20T00:21:24.920Z,46.17
2022-11-20T00:21:57.181Z,46.33
2022-11-20T00:22:29.471Z,46.46
2022-11-20T00:23:04.392Z,46.38
2022-11-20T00:23:36.653Z,46.19
2022-11-20T00:24:12.903Z,46.21
2022-11-20T00:24:45.241Z,46.62
2022-11-20T00:25:17.675Z,46.12
2022-11-20T00:25:55.272Z,46.63
2022-11-20T00:26:29.604Z,46.40
2022-11-20T00:27:01.866Z,46.33
2022-11-20T00:27:36.846Z,46.54
2022-11-20T00:28:09.124Z,46.27
2022-11-20T00:28:42.183Z,46.35
2022-11-20T00:29:17.233Z,46.15
2022-11-20T00:29:49.737Z,46.11
2022-11-20T00:30:22.112Z,46.24
2022-11-20T00:30:59.140Z,46.10
2022-11-20T00:31:31.887Z,46.42
2022-11-20T00:32:04.440Z,46.15
2022-11-20T00:32:39.375Z,46.32
2022-11-20T00:33:11.629Z,46.36
2022-11-20T00:33:44.730Z,46.48
2022-11-20T00:34:19.631Z,46.47
2022-11-20T00:34:51.913Z,46.44
2022-11-20T00:35:24.203Z,46.52
2022-11-20T00:36:04.897Z,46.22
2022-11-20T00:36:37.165Z,46.29
2022-11-20T00:37:12.089Z,46.24
2022-11-20T00:37:44.396Z,46.26
2022-11-20T00:38:16.656Z,46.17
2022-11-20T00:38:55.249Z,46.58
2022-11-20T00:39:27.514Z,46.27
2022-11-20T00:39:59.789Z,46.09
2022-11-20T00:40:34.711Z,46.39
2022-11-20T00:41:11.000Z,46.31
2022-11-20T00:41:45.912Z,46.43
2022-11-20T00:42:18.176Z,46.21
2022-11-20T00:42:50.448Z,46.53
2022-11-20T00:43:25.344Z,46.48
2022-11-20T00:43:58.176Z,46.28
2022-11-20T00:44:30.461Z,46.15
2022-11-20T00:45:05.569Z,46.26
2022-11-20T00:45:38.280Z,46.17
2022-11-20T00:46:12.108Z,46.58
2022-11-20T00:46:47.023Z,46.36
2022-11-20T00:47:19.329Z,46.58
2022-11-20T00:47:51.603Z,46.40
2022-11-20T00:48:26.497Z,46.33
2022-11-20T00:48:58.923Z,46.44
2022-11-20T00:49:34.007Z,46.11
2022-11-20T00:50:06.976Z,46.26
2022-11-20T00:50:39.291Z,46.14
2022-11-20T00:51:16.267Z,46.31
2022-11-20T00:51:48.587Z,46.18
2022-11-20T00:52:20.861Z,46.16
2022-11-20T00:52:55.793Z,46.50
2022-11-20T00:53:28.276Z,46.17
2022-11-20T00:54:01.327Z,46.19
2022-11-20T00:54:36.272Z,46.26
2022-11-20T00:55:09.009Z,46.58
2022-11-20T00:55:41.318Z,46.14
2022-11-20T00:56:20.057Z,46.09
2022-11-20T00:56:54.233Z,46.31
2022-11-20T00:57:26.532Z,46.17
2022-11-20T00:58:04.415Z,46.24
2022-11-20T00:58:38.875Z,46.19
2022-11-20T00:59:11.349Z,46.64
2022-11-20T00:59:46.283Z,46.19
2022-11-20T01:00:19.182Z,46.14
2022-11-20T01:00:51.563Z,46.51
2022-11-20T01:01:30.382Z,46.20
2022-11-20T01:02:02.769Z,46.38
2022-11-20T01:02:35.064Z,46.40
2022-11-20T01:03:09.972Z,46.24
2022-11-20T01:03:44.065Z,46.57
2022-11-20T01:04:16.419Z,46.26
2022-11-20T01:04:51.365Z,46.41
2022-11-20T01:05:23.616Z,46.53
2022-11-20T01:05:55.866Z,46.09
2022-11-20T01:06:32.518Z,46.09
2022-11-20T01:07:04.841Z,46.55
2022-11-20T01:07:37.204Z,46.36
2022-11-20T01:08:12.283Z,46.15
2022-11-20T01:08:45.857Z,46.31
2022-11-20T01:09:18.263Z,46.33
2022-11-20T01:09:53.399Z,46.55
2022-11-20T01:10:25.673Z,46.45
2022-11-20T01:11:00.602Z,46.53
2022-11-20T01:11:40.144Z,46.45
2022-11-20T01:12:12.405Z,46.59
2022-11-20T01:12:44.669Z,46.14
2022-11-20T01:13:31.985Z,46.49
2022-11-20T01:14:08.653Z,46.08
2022-11-20T01:14:40.912Z,46.32
2022-11-20T01:15:13.219Z,46.29
2022-11-20T01:15:48.125Z,46.50
2022-11-20T01:16:21.918Z,46.59
2022-11-20T01:16:56.981Z,46.34
2022-11-20T01:17:29.249Z,46.31
2022-11-20T01:18:01.571Z,46.37
2022-11-20T01:18:34.055Z,46.54
2022-11-20T01:19:11.586Z,46.41
2022-11-20T01:19:45.343Z,46.54
2022-11-20T01:20:17.644Z,46.58
2022-11-20T01:20:52.541Z,46.46
2022-11-20T01:21:26.420Z,46.59
2022-11-20T01:22:01.362Z,46.34
2022-11-20T01:22:34.224Z,46.37
2022-11-20T01:23:06.521Z,46.64
2022-11-20T01:23:43.419Z,46.37
2022-11-20T01:24:17.275Z,46.37
2022-11-20T01:24:49.654Z,46.39
2022-11-20T01:25:25.224Z,46.17
2022-11-20T01:25:57.986Z,46.42
2022-11-20T01:26:34.192Z,46.60
2022-11-20T01:27:09.055Z,46.66
2022-11-20T01:27:41.353Z,46.50
2022-11-20T01:28:16.331Z,46.29
2022-11-20T01:28:49.536Z,46.58
2022-11-20T01:29:24.432Z,46.55
2022-11-20T01:30:01.224Z,46.54
2022-11-20T01:30:33.766Z,46.15
2022-11-20T01:31:13.183Z,46.32
2022-11-20T01:31:48.410Z,46.13
2022-11-20T01:32:20.668Z,46.50
2022-11-20T01:32:52.926Z,46.14
2022-11-20T01:33:28.060Z,46.48
2022-11-20T01:34:01.478Z,46.23
2022-11-20T01:34:36.590Z,46.56
2022-11-20T01:35:10.742Z,46.14
2022-11-20T01:35:43.000Z,46.48
2022-11-20T01:36:19.274Z,46.56
2022-11-20T01:36:52.281Z,46.41
2022-11-20T01:37:24.550Z,46.54
2022-11-20T01:37:59.453Z,46.19
2022-11-20T01:38:31.752Z,46.47
2022-11-20T01:39:06.556Z,45.99
2022-11-20T01:39:41.448Z,46.58
2022-11-20T01:40:13.875Z,46.11
2022-11-20T01:40:46.112Z,46.55
2022-11-20T01:41:33.227Z,46.09
2022-11-20T01:42:20.579Z,46.12
2022-11-20T01:43:26.603Z,46.30
2022-11-20T01:43:58.962Z,46.12
2022-11-20T01:44:50.499Z,46.26
2022-11-20T01:46:07.369Z,46.54
2022-11-20T01:46:42.433Z,46.53
2022-11-20T01:47:15.776Z,46.26
2022-11-20T01:47:51.444Z,46.22
2022-11-20T01:48:25.617Z,46.11
2022-11-20T01:49:01.588Z,46.10
2022-11-20T01:49:40.903Z,46.48
2022-11-20T01:50:16.865Z,46.21
2022-11-20T01:50:49.732Z,46.10
2022-11-20T01:51:29.333Z,46.33
2022-11-20T01:52:04.348Z,46.48
2022-11-20T01:52:41.636Z,46.27
2022-11-20T01:53:19.307Z,46.38
2022-11-20T01:53:51.820Z,46.23
2022-11-20T01:54:26.644Z,46.39
2022-11-20T01:55:06.535Z,46.19
2022-11-20T01:55:43.225Z,46.13
2022-11-20T01:56:15.946Z,46.48
2022-11-20T01:56:52.632Z,46.10
2022-11-20T01:57:27.199Z,46.40
2022-11-20T01:58:02.916Z,46.29
2022-11-20T01:58:40.070Z,46.58
2022-11-20T01:59:15.177Z,46.18
2022-11-20T01:59:52.236Z,46.32
2022-11-20T02:00:27.864Z,46.34
2022-11-20T02:01:00.242Z,46.44
2022-11-20T02:01:32.720Z,46.29
2022-11-20T02:02:07.763Z,46.41
2022-11-20T02:02:41.321Z,46.31
2022-11-20T02:03:16.031Z,46.38
2022-11-20T02:03:51.624Z,46.30
2022-11-20T02:04:24.865Z,46.48
2022-11-20T02:04:59.012Z,46.21
2022-11-20T02:05:37.968Z,46.31
2022-11-20T02:06:14.625Z,46.40
2022-11-20T02:06:49.617Z,46.33
2022-11-20T02:07:25.217Z,46.08
2022-11-20T02:07:58.063Z,46.36
2022-11-20T02:08:30.916Z,46.07
2022-11-20T02:09:05.959Z,46.39
2022-11-20T02:09:38.225Z,46.36
2022-11-20T02:10:10.490Z,46.50
2022-11-20T02:10:45.388Z,46.50
2022-11-20T02:11:17.724Z,46.19
2022-11-20T02:11:50.111Z,46.14
2022-11-20T02:12:37.509Z,46.49
2022-11-20T02:13:27.463Z,46.19
2022-11-20T02:14:00.271Z,46.22
2022-11-20T02:14:35.164Z,46.29
2022-11-20T02:15:07.920Z,46.33
2022-11-20T02:15:40.164Z,46.35
2022-11-20T02:16:27.947Z,46.02
2022-11-20T02:17:00.221Z,46.29
2022-11-20T02:17:32.499Z,46.05
2022-11-20T02:18:08.298Z,46.24
2022-11-20T02:18:41.150Z,46.39
2022-11-20T02:19:27.190Z,46.09
2022-11-20T02:19:59.451Z,46.09
2022-11-20T02:20:31.703Z,46.22
2022-11-20T02:21:07.922Z,46.33
2022-11-20T02:21:47.389Z,46.43
2022-11-20T02:22:23.620Z,46.34
2022-11-20T02:22:58.701Z,46.13
2022-11-20T02:23:37.291Z,46.41
2022-11-20T02:24:14.014Z,46.35
2022-11-20T02:24:49.322Z,46.17
2022-11-20T02:25:21.689Z,46.18
2022-11-20T02:25:54.316Z,46.12
2022-11-20T02:26:27.978Z,46.26
2022-11-20T02:27:04.566Z,46.03
2022-11-20T02:27:36.909Z,46.43
2022-11-20T02:28:09.204Z,46.33
2022-11-20T02:28:41.596Z,46.18
2022-11-20T02:29:17.814Z,46.33
2022-11-20T02:29:52.561Z,46.02
2022-11-20T02:30:25.093Z,46.29
2022-11-20T02:30:59.974Z,46.33
2022-11-20T02:31:37.949Z,46.05
2022-11-20T02:32:22.205Z,46.08
2022-11-20T02:32:54.488Z,46.19
2022-11-20T02:33:26.735Z,46.03
2022-11-20T02:33:59.293Z,46.49
2022-11-20T02:34:34.333Z,46.50
2022-11-20T02:35:11.106Z,46.41
2022-11-20T02:35:47.074Z,46.29
2022-11-20T02:36:21.994Z,46.39
2022-11-20T02:36:54.639Z,46.28
2022-11-20T02:37:32.024Z,46.29
2022-11-20T02:38:06.944Z,46.38
2022-11-20T02:38:39.435Z,46.47
2022-11-20T02:39:15.009Z,46.51
2022-11-20T02:39:50.608Z,46.35
2022-11-20T02:40:23.309Z,46.38
2022-11-20T02:40:56.038Z,46.40
2022-11-20T02:41:35.517Z,46.50
2022-11-20T02:42:07.773Z,46.31
2022-11-20T02:42:40.023Z,46.02
2022-11-20T02:43:14.984Z,46.53
2022-11-20T02:43:47.232Z,46.47
2022-11-20T02:44:21.232Z,46.28
2022-11-20T02:44:56.091Z,46.12
2022-11-20T02:45:28.380Z,46.17
2022-11-20T02:46:00.634Z,46.29
2022-11-20T02:46:36.111Z,46.48
2022-11-20T02:47:08.461Z,46.26
2022-11-20T02:47:41.012Z,46.58
2022-11-20T02:48:15.952Z,46.66
2022-11-20T02:48:48.444Z,46.19
2022-11-20T02:49:23.589Z,46.12
2022-11-20T02:49:56.169Z,46.01
2022-11-20T02:50:28.519Z,46.50
2022-11-20T02:51:00.834Z,46.35
2022-11-20T02:51:36.145Z,46.07
2022-11-20T02:52:08.452Z,46.48
2022-11-20T02:52:40.744Z,46.43
2022-11-20T02:53:13.001Z,46.53
2022-11-20T02:53:48.139Z,46.08
2022-11-20T02:54:23.031Z,46.17
2022-11-20T02:54:55.324Z,46.47
2022-11-20T02:55:30.291Z,46.43
2022-11-20T02:56:02.545Z,46.05
2022-11-20T02:56:37.472Z,46.50
2022-11-20T02:57:09.764Z,46.05
2022-11-20T02:57:42.129Z,46.31
2022-11-20T02:58:14.389Z,46.23
2022-11-20T02:58:49.344Z,46.17
2022-11-20T02:59:21.827Z,46.12
2022-11-20T02:59:54.359Z,46.21
2022-11-20T03:00:29.469Z,46.07
2022-11-20T03:01:01.832Z,46.03
2022-11-20T03:01:34.550Z,46.11
2022-11-20T03:02:09.787Z,46.44
2022-11-20T03:02:42.379Z,46.08
2022-11-20T03:03:15.042Z,46.19
2022-11-20T03:03:50.347Z,46.11
2022-11-20T03:04:22.681Z,46.41
2022-11-20T03:04:54.949Z,46.08
2022-11-20T03:05:27.199Z,46.34
2022-11-20T03:06:03.433Z,46.09
2022-11-20T03:06:35.750Z,46.07
2022-11-20T03:07:09.399Z,46.08
2022-11-20T03:07:44.427Z,46.40
2022-11-20T03:08:16.726Z,46.19
2022-11-20T03:08:49.193Z,46.48
2022-11-20T03:09:26.757Z,46.12
2022-11-20T03:09:59.027Z,46.46
2022-11-20T03:10:31.285Z,46.43
2022-11-20T03:11:07.767Z,46.43
2022-11-20T03:11:40.063Z,46.13
2022-11-20T03:12:12.329Z,46.48
2022-11-20T03:12:47.201Z,46.47
2022-11-20T03:13:19.473Z,46.26
2022-11-20T03:13:51.787Z,46.48
2022-11-20T03:14:26.699Z,46.30
2022-11-20T03:14:58.992Z,46.05
2022-11-20T03:15:31.257Z,46.14
2022-11-20T03:16:14.073Z,46.46
2022-11-20T03:16:46.400Z,46.17
2022-11-20T03:17:18.708Z,46.58
2022-11-20T03:17:54.885Z,46.02
2022-11-20T03:18:32.473Z,46.19
2022-11-20T03:19:04.825Z,46.36
2022-11-20T03:19:37.132Z,46.06
2022-11-20T03:20:13.435Z,46.44
2022-11-20T03:20:45.703Z,46.33
2022-11-20T03:21:20.613Z,46.09
2022-11-20T03:21:52.911Z,46.51
2022-11-20T03:22:25.188Z,46.05
2022-11-20T03:23:00.135Z,46.28
2022-11-20T03:23:33.240Z,46.11
2022-11-20T03:24:06.373Z,46.34
2022-11-20T03:24:43.885Z,46.26
2022-11-20T03:25:16.339Z,46.01
2022-11-20T03:25:48.593Z,46.37
2022-11-20T03:26:25.339Z,46.03
2022-11-20T03:26:57.661Z,46.14
2022-11-20T03:27:33.567Z,46.11
2022-11-20T03:28:05.979Z,46.07
2022-11-20T03:28:41.274Z,46.14
2022-11-20T03:29:13.603Z,46.09
2022-11-20T03:29:45.852Z,46.45
2022-11-20T03:30:21.149Z,46.28
2022-11-20T03:30:53.443Z,46.84
2022-11-20T03:31:27.127Z,47.67
2022-11-20T03:32:02.049Z,47.69
2022-11-20T03:32:34.310Z,47.39
2022-11-20T03:33:06.561Z,47.23
2022-11-20T03:33:42.123Z,46.93
2022-11-20T03:34:14.680Z,46.72
2022-11-20T03:34:46.933Z,46.41
2022-11-20T03:35:21.847Z,46.04
2022-11-20T03:35:54.122Z,45.78
2022-11-20T03:36:27.132Z,45.84
2022-11-20T03:37:02.070Z,45.25
2022-11-20T03:37:34.374Z,45.47
2022-11-20T03:38:06.836Z,45.45
2022-11-20T03:38:42.200Z,45.28
2022-11-20T03:39:14.622Z,44.85
2022-11-20T03:39:49.504Z,45.16
2022-11-20T03:40:24.401Z,44.67
2022-11-20T03:41:00.077Z,44.70
2022-11-20T03:41:36.884Z,44.93
2022-11-20T03:42:33.729Z,44.57
2022-11-20T03:43:06.008Z,44.65
2022-11-20T03:43:41.370Z,44.52
2022-11-20T03:44:13.696Z,44.26
2022-11-20T03:44:46.019Z,44.30
2022-11-20T03:45:22.187Z,44.29
2022-11-20T03:45:54.452Z,44.03
2022-11-20T03:46:27.568Z,44.17
2022-11-20T03:47:02.473Z,44.43
2022-11-20T03:47:34.795Z,44.01
2022-11-20T03:48:09.741Z,44.09
2022-11-20T03:48:41.990Z,44.27
2022-11-20T03:49:16.887Z,43.95
2022-11-20T03:49:49.159Z,44.06
2022-11-20T03:50:21.420Z,43.83
2022-11-20T03:50:56.520Z,44.33
2022-11-20T03:51:29.779Z,43.94
2022-11-20T03:52:02.028Z,44.01
2022-11-20T03:52:36.969Z,44.17
2022-11-20T03:53:09.216Z,44.09
2022-11-20T03:53:44.996Z,43.88
2022-11-20T03:54:17.260Z,43.73
2022-11-20T03:54:52.123Z,43.93
2022-11-20T03:55:27.017Z,44.05
2022-11-20T03:55:59.269Z,43.88
2022-11-20T03:56:33.094Z,43.81
2022-11-20T03:57:08.099Z,43.87
2022-11-20T03:57:40.407Z,44.01
2022-11-20T03:58:12.725Z,43.57
2022-11-20T03:58:47.735Z,43.71
2022-11-20T03:59:20.253Z,43.90
2022-11-20T03:59:52.787Z,43.52
2022-11-20T04:00:27.719Z,43.83
2022-11-20T04:01:06.007Z,43.83
2022-11-20T04:01:38.606Z,43.49
2022-11-20T04:02:13.877Z,43.71
2022-11-20T04:02:46.233Z,43.93
2022-11-20T04:03:18.495Z,43.84
2022-11-20T04:03:55.712Z,43.56
2022-11-20T04:04:28.027Z,43.62
2022-11-20T04:05:00.312Z,43.47
2022-11-20T04:05:37.079Z,43.57
2022-11-20T04:06:11.292Z,43.58
2022-11-20T04:06:43.545Z,43.85
2022-11-20T04:07:18.520Z,43.31
2022-11-20T04:07:50.815Z,43.37
2022-11-20T04:08:23.072Z,43.33
2022-11-20T04:08:58.776Z,43.32
2022-11-20T04:09:31.025Z,43.45
2022-11-20T04:10:06.897Z,43.28
2022-11-20T04:10:42.027Z,43.45
2022-11-20T04:11:15.909Z,43.55
2022-11-20T04:11:48.151Z,43.50
2022-11-20T04:12:23.063Z,43.76
2022-11-20T04:12:55.362Z,43.73
2022-11-20T04:13:27.616Z,43.41
2022-11-20T04:14:03.865Z,43.56
2022-11-20T04:14:36.189Z,43.49
2022-11-20T04:15:09.343Z,43.45
2022-11-20T04:15:44.220Z,43.26
2022-11-20T04:16:16.705Z,43.52
2022-11-20T04:16:48.953Z,43.68
2022-11-20T04:17:23.933Z,43.25
2022-11-20T04:17:56.421Z,43.26
2022-11-20T04:18:28.696Z,43.53
2022-11-20T04:19:05.416Z,43.48
2022-11-20T04:19:37.756Z,43.26
2022-11-20T04:20:10.669Z,43.26
2022-11-20T04:20:45.588Z,43.28
2022-11-20T04:21:17.843Z,43.41
2022-11-20T04:21:50.101Z,43.66
2022-11-20T04:22:22.386Z,43.71
2022-11-20T04:22:58.583Z,43.25
2022-11-20T04:23:31.146Z,43.45
2022-11-20T04:24:03.673Z,43.67
2022-11-20T04:24:38.569Z,43.28
2022-11-20T04:25:13.441Z,43.56
2022-11-20T04:25:45.693Z,43.73
2022-11-20T04:26:21.123Z,43.25
2022-11-20T04:26:53.425Z,43.32
2022-11-20T04:27:25.668Z,43.45
2022-11-20T04:28:00.593Z,43.45
2022-11-20T04:28:32.868Z,43.22
2022-11-20T04:29:05.127Z,43.66
2022-11-20T04:29:40.065Z,43.68
2022-11-20T04:30:13.624Z,43.57
2022-11-20T04:30:45.941Z,43.26
2022-11-20T04:31:22.941Z,43.26
2022-11-20T04:31:55.200Z,43.29
2022-11-20T04:32:27.473Z,43.57
2022-11-20T04:33:02.591Z,43.45
2022-11-20T04:33:35.013Z,43.45
2022-11-20T04:34:08.225Z,43.37
2022-11-20T04:34:43.165Z,43.29
2022-11-20T04:35:15.508Z,43.71
2022-11-20T04:35:48.793Z,43.37
2022-11-20T04:36:25.121Z,43.32
2022-11-20T04:36:57.380Z,43.41
2022-11-20T04:37:29.643Z,43.28
2022-11-20T04:38:04.754Z,43.86
2022-11-20T04:38:37.010Z,43.30
2022-11-20T04:39:14.115Z,43.38
2022-11-20T04:39:49.016Z,43.48
2022-11-20T04:40:23.888Z,43.26
2022-11-20T04:40:58.779Z,43.47
2022-11-20T04:41:35.277Z,43.70
2022-11-20T04:42:22.515Z,43.71
2022-11-20T04:42:57.901Z,43.53
2022-11-20T04:43:30.518Z,43.63
2022-11-20T04:44:04.562Z,43.60
2022-11-20T04:44:39.559Z,43.44
2022-11-20T04:45:11.809Z,43.34
2022-11-20T04:45:44.079Z,43.27
2022-11-20T04:46:19.289Z,43.39
2022-11-20T04:46:51.608Z,43.67
2022-11-20T04:47:23.868Z,43.39
2022-11-20T04:47:58.948Z,43.40
2022-11-20T04:48:31.449Z,43.66
2022-11-20T04:49:04.366Z,43.55
2022-11-20T04:49:39.473Z,43.22
2022-11-20T04:50:12.094Z,43.72
2022-11-20T04:50:44.368Z,43.65
2022-11-20T04:51:19.284Z,43.47
2022-11-20T04:51:54.401Z,43.52
2022-11-20T04:52:26.643Z,43.30
2022-11-20T04:53:01.542Z,43.25
2022-11-20T04:53:33.893Z,43.28
2022-11-20T04:54:06.232Z,43.71
2022-11-20T04:54:41.189Z,43.25
2022-11-20T04:55:13.458Z,43.37
2022-11-20T04:55:48.384Z,43.77
2022-11-20T04:56:23.373Z,43.50
2022-11-20T04:56:55.632Z,43.40
2022-11-20T04:57:27.917Z,43.45
2022-11-20T04:58:02.831Z,43.37
2022-11-20T04:58:35.215Z,43.31
2022-11-20T04:59:07.457Z,43.23
2022-11-20T04:59:42.576Z,43.52
2022-11-20T05:00:16.949Z,43.34
2022-11-20T05:00:49.398Z,43.53
2022-11-20T05:01:25.751Z,43.68
2022-11-20T05:01:58.160Z,43.47
2022-11-20T05:02:32.164Z,43.25
2022-11-20T05:03:07.466Z,43.21
2022-11-20T05:03:42.488Z,43.40
2022-11-20T05:04:15.037Z,43.42
2022-11-20T05:04:49.940Z,43.53
2022-11-20T05:05:22.333Z,43.64
2022-11-20T05:05:54.659Z,43.47
2022-11-20T05:06:29.584Z,43.60
2022-11-20T05:07:01.901Z,43.38
2022-11-20T05:07:34.260Z,43.45
2022-11-20T05:08:09.227Z,43.18
2022-11-20T05:08:41.660Z,43.54
2022-11-20T05:09:14.078Z,43.59
2022-11-20T05:09:48.994Z,43.45
2022-11-20T05:10:21.263Z,43.33
2022-11-20T05:11:01.213Z,43.21
2022-11-20T05:11:36.326Z,43.11
2022-11-20T05:12:09.158Z,43.17
2022-11-20T05:12:41.827Z,43.40
2022-11-20T05:13:16.961Z,43.35
2022-11-20T05:13:49.818Z,43.20
2022-11-20T05:14:22.340Z,43.66
2022-11-20T05:14:57.647Z,43.61
2022-11-20T05:15:29.935Z,43.16
2022-11-20T05:16:07.179Z,43.11
2022-11-20T05:16:42.876Z,43.37
2022-11-20T05:17:15.446Z,43.51
2022-11-20T05:17:49.091Z,43.08
2022-11-20T05:18:24.042Z,43.22
2022-11-20T05:18:56.586Z,43.47
2022-11-20T05:19:28.874Z,43.29
2022-11-20T05:20:03.796Z,43.16
2022-11-20T05:20:37.333Z,43.52
2022-11-20T05:21:10.790Z,43.23
2022-11-20T05:21:45.664Z,43.12
2022-11-20T05:22:17.929Z,43.23
2022-11-20T05:22:50.248Z,43.29
2022-11-20T05:23:25.161Z,43.37
2022-11-20T05:23:57.484Z,43.08
2022-11-20T05:24:32.484Z,43.09
2022-11-20T05:25:05.464Z,43.46
2022-11-20T05:25:37.786Z,43.00
2022-11-20T05:26:17.595Z,43.13
2022-11-20T05:26:49.853Z,42.97
2022-11-20T05:27:22.114Z,43.12
2022-11-20T05:27:57.292Z,43.00
2022-11-20T05:28:31.209Z,43.45
2022-11-20T05:29:03.608Z,43.01
2022-11-20T05:29:38.515Z,42.94
2022-11-20T05:30:12.457Z,42.97
2022-11-20T05:30:44.810Z,43.16
2022-11-20T05:31:24.944Z,43.06
2022-11-20T05:32:01.417Z,43.04
2022-11-20T05:32:33.689Z,42.94
2022-11-20T05:33:05.938Z,43.40
2022-11-20T05:33:43.976Z,43.18
2022-11-20T05:34:16.344Z,43.06
2022-11-20T05:34:48.631Z,43.02
2022-11-20T05:35:20.918Z,43.03
2022-11-20T05:35:55.817Z,43.20
2022-11-20T05:36:28.108Z,42.92
2022-11-20T05:37:00.398Z,42.94
2022-11-20T05:37:35.405Z,43.37
2022-11-20T05:38:07.735Z,43.12
2022-11-20T05:38:42.863Z,43.36
2022-11-20T05:39:15.255Z,42.89
2022-11-20T05:39:47.566Z,43.16
2022-11-20T05:40:22.445Z,43.02
2022-11-20T05:40:54.722Z,43.11
2022-11-20T05:41:29.814Z,42.99
2022-11-20T05:42:17.064Z,43.30
2022-11-20T05:42:51.975Z,42.99
2022-11-20T05:43:24.226Z,42.99
2022-11-20T05:44:00.273Z,43.39
2022-11-20T05:44:32.532Z,43.30
2022-11-20T05:45:07.067Z,43.55
2022-11-20T05:45:41.952Z,43.26
2022-11-20T05:46:15.978Z,42.98
2022-11-20T05:46:48.244Z,43.29
2022-11-20T05:47:23.160Z,43.32
2022-11-20T05:47:58.550Z,43.21
2022-11-20T05:48:33.968Z,43.50
2022-11-20T05:49:06.216Z,43.18
2022-11-20T05:49:38.492Z,43.38
2022-11-20T05:50:13.499Z,43.52
2022-11-20T05:50:45.777Z,43.43
2022-11-20T05:51:19.940Z,43.40
2022-11-20T05:51:54.840Z,43.45
2022-11-20T05:52:29.611Z,43.25
2022-11-20T05:53:01.988Z,43.11
2022-11-20T05:53:36.936Z,43.02
2022-11-20T05:54:09.166Z,43.35
2022-11-20T05:54:41.436Z,43.00
2022-11-20T05:55:16.548Z,43.30
2022-11-20T05:55:57.725Z,43.00
2022-11-20T05:56:35.243Z,43.42
2022-11-20T05:57:07.513Z,43.30
2022-11-20T05:57:39.792Z,43.31
2022-11-20T05:58:14.676Z,43.07
2022-11-20T05:58:47.926Z,43.07
2022-11-20T05:59:20.583Z,43.31
2022-11-20T05:59:55.750Z,43.01
2022-11-20T06:00:28.099Z,43.08
2022-11-20T06:01:05.845Z,42.32
2022-11-20T06:01:40.927Z,42.13
2022-11-20T06:02:13.281Z,42.16
2022-11-20T06:02:45.730Z,42.54
2022-11-20T06:03:20.705Z,42.25
2022-11-20T06:03:58.754Z,42.94
2022-11-20T06:04:31.208Z,42.76
2022-11-20T06:05:11.467Z,43.19
2022-11-20T06:05:43.789Z,43.32
2022-11-20T06:06:16.829Z,43.68
2022-11-20T06:06:51.807Z,43.84
2022-11-20T06:07:27.969Z,43.67
2022-11-20T06:08:02.592Z,43.93
2022-11-20T06:08:39.541Z,44.04
2022-11-20T06:09:11.798Z,43.95
2022-11-20T06:09:44.137Z,44.36
2022-11-20T06:10:24.434Z,44.58
2022-11-20T06:10:56.920Z,44.24
2022-11-20T06:11:36.553Z,44.56
2022-11-20T06:12:08.917Z,44.72
2022-11-20T06:12:42.686Z,44.74
2022-11-20T06:13:17.647Z,44.90
2022-11-20T06:13:51.409Z,44.67
2022-11-20T06:14:24.246Z,44.89
2022-11-20T06:15:05.824Z,45.11
2022-11-20T06:15:38.420Z,44.88
2022-11-20T06:16:19.958Z,45.21
2022-11-20T06:16:54.842Z,45.07
2022-11-20T06:17:30.586Z,45.30
2022-11-20T06:18:08.518Z,44.99
2022-11-20T06:18:40.848Z,45.52
2022-11-20T06:19:15.464Z,45.35
2022-11-20T06:19:50.456Z,45.37
2022-11-20T06:20:26.404Z,45.42
2022-11-20T06:21:03.915Z,45.04
2022-11-20T06:21:39.043Z,45.34
2022-11-20T06:22:11.418Z,45.35
2022-11-20T06:22:44.252Z,45.33
2022-11-20T06:23:25.988Z,45.40
2022-11-20T06:23:58.302Z,45.13
2022-11-20T06:24:30.797Z,45.12
2022-11-20T06:25:08.291Z,45.20
2022-11-20T06:25:41.261Z,45.39
2022-11-20T06:26:14.931Z,45.64
2022-11-20T06:27:02.615Z,45.60
2022-11-20T06:27:34.876Z,45.49
2022-11-20T06:28:10.331Z,45.17
2022-11-20T06:28:47.955Z,45.33
2022-11-20T06:29:20.638Z,45.71
2022-11-20T06:29:53.045Z,45.61
2022-11-20T06:30:29.817Z,45.33
2022-11-20T06:31:09.075Z,45.66
2022-11-20T06:31:43.648Z,45.33
2022-11-20T06:32:18.806Z,45.49
2022-11-20T06:32:51.057Z,45.59
2022-11-20T06:33:23.376Z,45.62
2022-11-20T06:33:59.741Z,45.35
2022-11-20T06:34:33.223Z,45.33
2022-11-20T06:35:06.422Z,45.61
2022-11-20T06:35:42.959Z,45.34
2022-11-20T06:36:16.452Z,45.74
2022-11-20T06:37:03.528Z,45.37
2022-11-20T06:37:38.496Z,45.57
2022-11-20T06:38:10.743Z,45.58
2022-11-20T06:38:46.111Z,45.60
2022-11-20T06:39:18.402Z,45.46
2022-11-20T06:39:53.304Z,45.74
2022-11-20T06:40:25.571Z,45.72
2022-11-20T06:41:00.523Z,45.47
2022-11-20T06:41:32.761Z,45.65
2022-11-20T06:42:14.106Z,45.70
2022-11-20T06:42:49.883Z,45.83
2022-11-20T06:43:22.952Z,45.79
2022-11-20T06:43:55.687Z,45.62
2022-11-20T06:44:30.555Z,45.74
2022-11-20T06:45:02.868Z,45.38
2022-11-20T06:45:35.128Z,45.57
2022-11-20T06:46:11.279Z,45.51
2022-11-20T06:46:43.563Z,45.75
2022-11-20T06:47:16.648Z,45.80
2022-11-20T06:47:53.496Z,45.54
2022-11-20T06:48:28.467Z,45.67
2022-11-20T06:49:00.823Z,45.58
2022-11-20T06:49:35.935Z,45.43
2022-11-20T06:50:08.802Z,45.61
2022-11-20T06:50:41.046Z,45.61
2022-11-20T06:51:17.130Z,45.42
2022-11-20T06:51:49.492Z,45.54
2022-11-20T06:52:21.768Z,45.84
2022-11-20T06:52:56.692Z,45.52
2022-11-20T06:53:28.940Z,45.91
2022-11-20T06:54:02.072Z,45.57
2022-11-20T06:54:37.037Z,45.90
2022-11-20T06:55:09.676Z,45.76
2022-11-20T06:55:46.434Z,45.91
2022-11-20T06:56:18.789Z,45.88
2022-11-20T06:56:53.713Z,45.63
2022-11-20T06:57:28.637Z,45.86
2022-11-20T06:58:00.931Z,45.54
2022-11-20T06:58:36.923Z,45.74
2022-11-20T06:59:09.398Z,45.52
2022-11-20T06:59:44.501Z,45.77
2022-11-20T07:00:17.161Z,45.51
2022-11-20T07:00:49.480Z,45.65
2022-11-20T07:01:24.462Z,45.83
2022-11-20T07:01:56.763Z,45.54
2022-11-20T07:02:29.042Z,45.60
2022-11-20T07:03:06.933Z,45.46
2022-11-20T07:03:39.528Z,45.85
2022-11-20T07:04:12.001Z,45.44
2022-11-20T07:04:46.901Z,45.52
2022-11-20T07:05:19.214Z,45.80
2022-11-20T07:05:51.481Z,45.82
2022-11-20T07:06:26.397Z,45.64
2022-11-20T07:06:58.734Z,45.81
2022-11-20T07:07:31.344Z,45.44
2022-11-20T07:08:06.815Z,45.84
2022-11-20T07:08:39.161Z,45.78
2022-11-20T07:09:14.075Z,45.85
2022-11-20T07:09:46.388Z,45.69
2022-11-20T07:10:18.641Z,45.88
2022-11-20T07:10:53.562Z,45.90
2022-11-20T07:11:26.125Z,45.81
2022-11-20T07:12:01.466Z,45.60
2022-11-20T07:12:36.343Z,45.64
2022-11-20T07:13:11.256Z,45.96
2022-11-20T07:13:43.503Z,45.93
2022-11-20T07:14:15.815Z,45.54
2022-11-20T07:14:50.724Z,45.83
2022-11-20T07:15:24.684Z,45.94
2022-11-20T07:16:00.936Z,46.05
2022-11-20T07:16:35.823Z,45.93
2022-11-20T07:17:08.077Z,45.96
2022-11-20T07:17:42.980Z,45.86
2022-11-20T07:18:15.224Z,45.79
2022-11-20T07:18:50.997Z,45.50
2022-11-20T07:19:23.747Z,46.01
2022-11-20T07:19:56.183Z,45.88
2022-11-20T07:20:31.554Z,46.17
2022-11-20T07:21:03.888Z,46.40
2022-11-20T07:21:38.959Z,46.21
2022-11-20T07:22:11.253Z,46.80